sensor_id;sensor_type;location;lat;lon;timestamp;temperature;humidity
79020;DHT22;68422;44.714;37.756;2023-04-01T00:00:25;23.52;37.88
79020;DHT22;68422;44.714;37.756;2023-04-01T00:01:27;23.50;37.91
79020;DHT22;68422;44.714;37.756;2023-04-01T00:02:28;23.53;37.89
79020;DHT22;68422;44.714;37.756;2023-04-01T00:03:36;23.50;37.85
79020;DHT22;68422;44.714;37.756;2023-04-01T00:04:38;23.56;37.79
79020;DHT22;68422;44.714;37.756;2023-04-01T00:05:39;23.57;37.77
79020;DHT22;68422;44.714;37.756;2023-04-01T00:06:41;23.53;37.80
79020;DHT22;68422;44.714;37.756;2023-04-01T00:07:42;23.52;37.86
79020;DHT22;68422;44.714;37.756;2023-04-01T00:08:44;23.50;37.89
79020;DHT22;68422;44.714;37.756;2023-04-01T00:09:46;23.45;37.93
79020;DHT22;68422;44.714;37.756;2023-04-01T00:10:47;23.50;37.88
79020;DHT22;68422;44.714;37.756;2023-04-01T00:11:48;23.56;37.81
79020;DHT22;68422;44.714;37.756;2023-04-01T00:12:50;23.53;37.80
79020;DHT22;68422;44.714;37.756;2023-04-01T00:13:51;23.49;37.91
79020;DHT22;68422;44.714;37.756;2023-04-01T00:14:53;23.55;37.89
79020;DHT22;68422;44.714;37.756;2023-04-01T00:15:55;23.50;37.86
79020;DHT22;68422;44.714;37.756;2023-04-01T00:16:56;23.53;37.86
79020;DHT22;68422;44.714;37.756;2023-04-01T00:17:58;23.57;37.77
79020;DHT22;68422;44.714;37.756;2023-04-01T00:18:59;23.59;37.71
79020;DHT22;68422;44.714;37.756;2023-04-01T00:20:01;23.55;37.75
79020;DHT22;68422;44.714;37.756;2023-04-01T00:21:03;23.55;37.73
79020;DHT22;68422;44.714;37.756;2023-04-01T00:22:05;23.57;37.73
79020;DHT22;68422;44.714;37.756;2023-04-01T00:23:07;23.57;37.69
79020;DHT22;68422;44.714;37.756;2023-04-01T00:24:08;23.49;37.81
79020;DHT22;68422;44.714;37.756;2023-04-01T00:25:09;23.49;37.91
79020;DHT22;68422;44.714;37.756;2023-04-01T00:26:11;23.46;37.91
79020;DHT22;68422;44.714;37.756;2023-04-01T00:27:13;23.43;37.94
79020;DHT22;68422;44.714;37.756;2023-04-01T00:28:19;23.41;37.96
79020;DHT22;68422;44.714;37.756;2023-04-01T00:29:21;23.42;38.04
79020;DHT22;68422;44.714;37.756;2023-04-01T00:30:22;23.43;38.08
79020;DHT22;68422;44.714;37.756;2023-04-01T00:31:23;23.49;37.91
79020;DHT22;68422;44.714;37.756;2023-04-01T00:32:25;23.46;37.92
79020;DHT22;68422;44.714;37.756;2023-04-01T00:33:27;23.43;37.93
79020;DHT22;68422;44.714;37.756;2023-04-01T00:34:28;23.45;37.95
79020;DHT22;68422;44.714;37.756;2023-04-01T00:35:30;23.52;37.85
79020;DHT22;68422;44.714;37.756;2023-04-01T00:36:31;23.49;37.84
79020;DHT22;68422;44.714;37.756;2023-04-01T00:37:35;23.53;37.90
79020;DHT22;68422;44.714;37.756;2023-04-01T00:38:36;23.52;37.81
79020;DHT22;68422;44.714;37.756;2023-04-01T00:39:38;23.53;37.85
79020;DHT22;68422;44.714;37.756;2023-04-01T00:40:44;23.55;37.74
79020;DHT22;68422;44.714;37.756;2023-04-01T00:41:47;23.55;37.76
79020;DHT22;68422;44.714;37.756;2023-04-01T00:42:48;23.50;37.83
79020;DHT22;68422;44.714;37.756;2023-04-01T00:43:51;23.48;37.83
79020;DHT22;68422;44.714;37.756;2023-04-01T00:44:53;23.45;37.88
79020;DHT22;68422;44.714;37.756;2023-04-01T00:45:55;23.43;37.88
79020;DHT22;68422;44.714;37.756;2023-04-01T00:46:56;23.42;37.90
79020;DHT22;68422;44.714;37.756;2023-04-01T00:48:02;23.42;37.97
79020;DHT22;68422;44.714;37.756;2023-04-01T00:49:05;23.39;37.96
79020;DHT22;68422;44.714;37.756;2023-04-01T00:50:07;23.38;38.02
79020;DHT22;68422;44.714;37.756;2023-04-01T00:52:15;23.49;37.88
79020;DHT22;68422;44.714;37.756;2023-04-01T00:53:18;23.53;37.73
79020;DHT22;68422;44.714;37.756;2023-04-01T00:54:23;23.50;37.71
79020;DHT22;68422;44.714;37.756;2023-04-01T00:55:26;23.52;37.73
79020;DHT22;68422;44.714;37.756;2023-04-01T00:56:33;23.49;37.75
79020;DHT22;68422;44.714;37.756;2023-04-01T00:57:36;23.45;37.86
79020;DHT22;68422;44.714;37.756;2023-04-01T00:58:43;23.43;37.88
79020;DHT22;68422;44.714;37.756;2023-04-01T00:59:47;23.39;37.94
79020;DHT22;68422;44.714;37.756;2023-04-01T01:00:51;23.49;37.80
79020;DHT22;68422;44.714;37.756;2023-04-01T01:01:53;23.50;37.70
79020;DHT22;68422;44.714;37.756;2023-04-01T01:02:54;23.49;37.75
79020;DHT22;68422;44.714;37.756;2023-04-01T01:03:56;23.48;37.83
79020;DHT22;68422;44.714;37.756;2023-04-01T01:04:57;23.48;37.73
79020;DHT22;68422;44.714;37.756;2023-04-01T01:07:52;23.46;37.80
79020;DHT22;68422;44.714;37.756;2023-04-01T01:10:37;23.41;37.86
79020;DHT22;68422;44.714;37.756;2023-04-01T01:11:51;23.38;38.00
79020;DHT22;68422;44.714;37.756;2023-04-01T01:15:45;23.49;37.69
79020;DHT22;68422;44.714;37.756;2023-04-01T01:16:53;23.43;37.74
79020;DHT22;68422;44.714;37.756;2023-04-01T01:19:45;23.39;37.92
79020;DHT22;68422;44.714;37.756;2023-04-01T01:27:28;23.35;37.95
79020;DHT22;68422;44.714;37.756;2023-04-01T01:28:51;23.26;38.05
79020;DHT22;68422;44.714;37.756;2023-04-01T01:30:34;23.28;38.05
79020;DHT22;68422;44.714;37.756;2023-04-01T01:33:11;23.28;38.13
79020;DHT22;68422;44.714;37.756;2023-04-01T01:36:15;23.29;38.07
79020;DHT22;68422;44.714;37.756;2023-04-01T01:37:16;23.30;37.96
79020;DHT22;68422;44.714;37.756;2023-04-01T01:38:22;23.36;38.08
79020;DHT22;68422;44.714;37.756;2023-04-01T01:39:31;23.42;37.91
79020;DHT22;68422;44.714;37.756;2023-04-01T01:40:36;23.39;37.94
79020;DHT22;68422;44.714;37.756;2023-04-01T01:41:38;23.36;37.94
79020;DHT22;68422;44.714;37.756;2023-04-01T01:42:46;23.35;37.97
79020;DHT22;68422;44.714;37.756;2023-04-01T01:43:50;23.32;37.88
79020;DHT22;68422;44.714;37.756;2023-04-01T01:44:53;23.38;37.89
79020;DHT22;68422;44.714;37.756;2023-04-01T01:45:59;23.38;37.90
79020;DHT22;68422;44.714;37.756;2023-04-01T01:47:03;23.38;37.86
79020;DHT22;68422;44.714;37.756;2023-04-01T01:48:05;23.38;37.85
79020;DHT22;68422;44.714;37.756;2023-04-01T01:49:10;23.35;37.87
79020;DHT22;68422;44.714;37.756;2023-04-01T01:50:13;23.35;37.93
79020;DHT22;68422;44.714;37.756;2023-04-01T01:51:16;23.36;37.91
79020;DHT22;68422;44.714;37.756;2023-04-01T01:52:18;23.33;37.94
79020;DHT22;68422;44.714;37.756;2023-04-01T01:53:20;23.38;37.82
79020;DHT22;68422;44.714;37.756;2023-04-01T01:54:21;23.33;37.88
79020;DHT22;68422;44.714;37.756;2023-04-01T01:55:32;23.30;38.00
79020;DHT22;68422;44.714;37.756;2023-04-01T01:56:33;23.33;37.96
79020;DHT22;68422;44.714;37.756;2023-04-01T01:57:37;23.30;38.03
79020;DHT22;68422;44.714;37.756;2023-04-01T01:58:47;23.30;38.10
79020;DHT22;68422;44.714;37.756;2023-04-01T01:59:56;23.35;38.05
79020;DHT22;68422;44.714;37.756;2023-04-01T02:01:04;23.30;37.98
79020;DHT22;68422;44.714;37.756;2023-04-01T02:02:08;23.32;38.05
79020;DHT22;68422;44.714;37.756;2023-04-01T02:03:12;23.32;37.96
79020;DHT22;68422;44.714;37.756;2023-04-01T02:04:14;23.33;38.00
79020;DHT22;68422;44.714;37.756;2023-04-01T02:05:22;23.33;38.02
79020;DHT22;68422;44.714;37.756;2023-04-01T02:06:28;23.35;37.96
79020;DHT22;68422;44.714;37.756;2023-04-01T02:07:33;23.36;37.96
79020;DHT22;68422;44.714;37.756;2023-04-01T02:09:53;23.35;37.87
79020;DHT22;68422;44.714;37.756;2023-04-01T02:11:00;23.33;38.03
79020;DHT22;68422;44.714;37.756;2023-04-01T02:12:09;23.33;38.02
79020;DHT22;68422;44.714;37.756;2023-04-01T02:13:43;23.38;37.95
79020;DHT22;68422;44.714;37.756;2023-04-01T02:14:57;23.43;37.78
79020;DHT22;68422;44.714;37.756;2023-04-01T02:16:02;23.42;37.82
79020;DHT22;68422;44.714;37.756;2023-04-01T02:17:14;23.35;37.91
79020;DHT22;68422;44.714;37.756;2023-04-01T02:18:18;23.30;38.04
79020;DHT22;68422;44.714;37.756;2023-04-01T02:19:26;23.28;37.99
79020;DHT22;68422;44.714;37.756;2023-04-01T02:20:30;23.28;37.99
79020;DHT22;68422;44.714;37.756;2023-04-01T02:21:32;23.30;37.98
79020;DHT22;68422;44.714;37.756;2023-04-01T02:22:36;23.28;37.95
79020;DHT22;68422;44.714;37.756;2023-04-01T02:23:43;23.28;38.03
79020;DHT22;68422;44.714;37.756;2023-04-01T02:24:46;23.30;38.02
79020;DHT22;68422;44.714;37.756;2023-04-01T02:25:48;23.26;38.00
79020;DHT22;68422;44.714;37.756;2023-04-01T02:26:51;23.26;38.09
79020;DHT22;68422;44.714;37.756;2023-04-01T02:27:54;23.30;38.03
79020;DHT22;68422;44.714;37.756;2023-04-01T02:28:57;23.28;38.02
79020;DHT22;68422;44.714;37.756;2023-04-01T02:30:00;23.28;38.08
79020;DHT22;68422;44.714;37.756;2023-04-01T02:31:02;23.28;38.08
79020;DHT22;68422;44.714;37.756;2023-04-01T02:32:05;23.29;38.02
79020;DHT22;68422;44.714;37.756;2023-04-01T02:33:08;23.29;38.05
79020;DHT22;68422;44.714;37.756;2023-04-01T02:34:10;23.28;37.98
79020;DHT22;68422;44.714;37.756;2023-04-01T02:35:13;23.28;38.02
79020;DHT22;68422;44.714;37.756;2023-04-01T02:36:17;23.28;37.95
79020;DHT22;68422;44.714;37.756;2023-04-01T02:37:18;23.29;37.99
79020;DHT22;68422;44.714;37.756;2023-04-01T02:38:20;23.28;37.98
79020;DHT22;68422;44.714;37.756;2023-04-01T02:39:22;23.26;38.03
79020;DHT22;68422;44.714;37.756;2023-04-01T02:40:23;23.25;38.04
79020;DHT22;68422;44.714;37.756;2023-04-01T02:41:26;23.28;38.02
79020;DHT22;68422;44.714;37.756;2023-04-01T02:42:27;23.26;38.05
79020;DHT22;68422;44.714;37.756;2023-04-01T02:43:28;23.28;38.09
79020;DHT22;68422;44.714;37.756;2023-04-01T02:44:31;23.26;38.02
79020;DHT22;68422;44.714;37.756;2023-04-01T02:45:33;23.26;38.01
79020;DHT22;68422;44.714;37.756;2023-04-01T02:46:34;23.26;38.01
79020;DHT22;68422;44.714;37.756;2023-04-01T02:47:35;23.28;38.01
79020;DHT22;68422;44.714;37.756;2023-04-01T02:48:38;23.23;38.16
79020;DHT22;68422;44.714;37.756;2023-04-01T02:49:39;23.26;38.11
79020;DHT22;68422;44.714;37.756;2023-04-01T02:50:41;23.29;38.08
79020;DHT22;68422;44.714;37.756;2023-04-01T02:51:42;23.35;37.92
79020;DHT22;68422;44.714;37.756;2023-04-01T02:52:44;23.36;37.85
79020;DHT22;68422;44.714;37.756;2023-04-01T02:53:46;23.41;37.62
79020;DHT22;68422;44.714;37.756;2023-04-01T02:54:47;23.48;37.41
79020;DHT22;68422;44.714;37.756;2023-04-01T02:55:48;23.53;37.24
79020;DHT22;68422;44.714;37.756;2023-04-01T02:56:52;23.63;36.99
79020;DHT22;68422;44.714;37.756;2023-04-01T02:57:53;23.66;37.04
79020;DHT22;68422;44.714;37.756;2023-04-01T02:58:55;23.70;36.90
79020;DHT22;68422;44.714;37.756;2023-04-01T02:59:56;23.74;36.79
79020;DHT22;68422;44.714;37.756;2023-04-01T03:00:57;23.79;36.70
79020;DHT22;68422;44.714;37.756;2023-04-01T03:01:59;23.77;36.64
79020;DHT22;68422;44.714;37.756;2023-04-01T03:03:00;23.79;36.58
79020;DHT22;68422;44.714;37.756;2023-04-01T03:04:01;23.83;36.49
79020;DHT22;68422;44.714;37.756;2023-04-01T03:05:03;23.84;36.47
79020;DHT22;68422;44.714;37.756;2023-04-01T03:06:10;23.87;36.37
79020;DHT22;68422;44.714;37.756;2023-04-01T03:07:12;23.94;36.30
79020;DHT22;68422;44.714;37.756;2023-04-01T03:08:13;23.96;36.21
79020;DHT22;68422;44.714;37.756;2023-04-01T03:09:14;23.94;36.23
79020;DHT22;68422;44.714;37.756;2023-04-01T03:10:16;23.93;36.18
79020;DHT22;68422;44.714;37.756;2023-04-01T03:11:17;23.94;36.25
79020;DHT22;68422;44.714;37.756;2023-04-01T03:12:19;23.94;36.17
79020;DHT22;68422;44.714;37.756;2023-04-01T03:13:24;23.93;36.22
79020;DHT22;68422;44.714;37.756;2023-04-01T03:14:26;23.86;36.30
79020;DHT22;68422;44.714;37.756;2023-04-01T03:15:27;23.83;36.36
79020;DHT22;68422;44.714;37.756;2023-04-01T03:16:35;23.80;36.40
79020;DHT22;68422;44.714;37.756;2023-04-01T03:17:37;23.79;36.42
79020;DHT22;68422;44.714;37.756;2023-04-01T03:18:38;23.77;36.48
79020;DHT22;68422;44.714;37.756;2023-04-01T03:19:40;23.77;36.46
79020;DHT22;68422;44.714;37.756;2023-04-01T03:20:43;23.81;36.42
79020;DHT22;68422;44.714;37.756;2023-04-01T03:21:45;23.80;36.39
79020;DHT22;68422;44.714;37.756;2023-04-01T03:22:46;23.81;36.36
79020;DHT22;68422;44.714;37.756;2023-04-01T03:23:47;23.77;36.42
79020;DHT22;68422;44.714;37.756;2023-04-01T03:24:53;23.84;36.38
79020;DHT22;68422;44.714;37.756;2023-04-01T03:25:55;23.80;36.31
79020;DHT22;68422;44.714;37.756;2023-04-01T03:26:56;23.79;36.35
79020;DHT22;68422;44.714;37.756;2023-04-01T03:27:57;23.81;36.32
79020;DHT22;68422;44.714;37.756;2023-04-01T03:29:00;23.80;36.42
79020;DHT22;68422;44.714;37.756;2023-04-01T03:30:03;23.81;36.33
79020;DHT22;68422;44.714;37.756;2023-04-01T03:31:13;23.83;36.30
79020;DHT22;68422;44.714;37.756;2023-04-01T03:32:21;23.76;36.42
79020;DHT22;68422;44.714;37.756;2023-04-01T03:33:29;23.74;36.50
79020;DHT22;68422;44.714;37.756;2023-04-01T03:34:30;23.73;36.59
79020;DHT22;68422;44.714;37.756;2023-04-01T03:35:32;23.71;36.59
79020;DHT22;68422;44.714;37.756;2023-04-01T03:36:34;23.63;37.09
79020;DHT22;68422;44.714;37.756;2023-04-01T03:37:35;23.65;37.01
79020;DHT22;68422;44.714;37.756;2023-04-01T03:38:37;23.62;37.11
79020;DHT22;68422;44.714;37.756;2023-04-01T03:39:42;23.65;36.98
79020;DHT22;68422;44.714;37.756;2023-04-01T03:40:44;23.73;36.95
79020;DHT22;68422;44.714;37.756;2023-04-01T03:41:46;23.76;37.15
79020;DHT22;68422;44.714;37.756;2023-04-01T03:42:48;23.83;37.43
79020;DHT22;68422;44.714;37.756;2023-04-01T03:43:50;23.87;37.08
79020;DHT22;68422;44.714;37.756;2023-04-01T03:44:51;23.90;36.92
79020;DHT22;68422;44.714;37.756;2023-04-01T03:45:53;23.93;36.79
79020;DHT22;68422;44.714;37.756;2023-04-01T03:46:55;23.88;36.74
79020;DHT22;68422;44.714;37.756;2023-04-01T03:48:03;23.87;36.60
79020;DHT22;68422;44.714;37.756;2023-04-01T03:49:09;23.81;36.68
79020;DHT22;68422;44.714;37.756;2023-04-01T03:50:14;23.83;36.67
79020;DHT22;68422;44.714;37.756;2023-04-01T03:51:16;23.87;36.52
79020;DHT22;68422;44.714;37.756;2023-04-01T03:52:18;23.92;36.47
79020;DHT22;68422;44.714;37.756;2023-04-01T03:53:19;23.97;36.36
79020;DHT22;68422;44.714;37.756;2023-04-01T03:54:22;23.98;36.27
79020;DHT22;68422;44.714;37.756;2023-04-01T03:55:23;24.04;36.13
79020;DHT22;68422;44.714;37.756;2023-04-01T03:56:25;24.00;36.11
79020;DHT22;68422;44.714;37.756;2023-04-01T03:57:27;23.98;36.09
79020;DHT22;68422;44.714;37.756;2023-04-01T03:58:33;24.01;36.10
79020;DHT22;68422;44.714;37.756;2023-04-01T03:59:36;24.04;36.05
79020;DHT22;68422;44.714;37.756;2023-04-01T04:00:38;24.08;35.95
79020;DHT22;68422;44.714;37.756;2023-04-01T04:01:39;24.04;36.03
79020;DHT22;68422;44.714;37.756;2023-04-01T04:02:41;24.01;36.05
79020;DHT22;68422;44.714;37.756;2023-04-01T04:03:43;24.04;36.05
79020;DHT22;68422;44.714;37.756;2023-04-01T04:04:45;24.08;35.97
79020;DHT22;68422;44.714;37.756;2023-04-01T04:05:48;24.10;35.90
79020;DHT22;68422;44.714;37.756;2023-04-01T04:06:52;24.10;35.92
79020;DHT22;68422;44.714;37.756;2023-04-01T04:07:55;24.10;35.87
79020;DHT22;68422;44.714;37.756;2023-04-01T04:08:57;24.07;35.88
79020;DHT22;68422;44.714;37.756;2023-04-01T04:09:59;24.06;35.92
79020;DHT22;68422;44.714;37.756;2023-04-01T04:11:00;24.06;35.89
79020;DHT22;68422;44.714;37.756;2023-04-01T04:12:02;24.11;35.81
79020;DHT22;68422;44.714;37.756;2023-04-01T04:13:04;24.08;36.02
79020;DHT22;68422;44.714;37.756;2023-04-01T04:14:09;24.07;36.03
79020;DHT22;68422;44.714;37.756;2023-04-01T04:15:11;24.03;36.04
79020;DHT22;68422;44.714;37.756;2023-04-01T04:16:14;24.03;36.04
79020;DHT22;68422;44.714;37.756;2023-04-01T04:17:20;24.01;35.94
79020;DHT22;68422;44.714;37.756;2023-04-01T04:18:22;24.00;36.03
79020;DHT22;68422;44.714;37.756;2023-04-01T04:19:23;23.92;36.25
79020;DHT22;68422;44.714;37.756;2023-04-01T04:20:25;23.83;36.38
79020;DHT22;68422;44.714;37.756;2023-04-01T04:21:27;23.80;36.51
79020;DHT22;68422;44.714;37.756;2023-04-01T04:22:28;23.81;36.38
79020;DHT22;68422;44.714;37.756;2023-04-01T04:23:30;23.77;36.57
79020;DHT22;68422;44.714;37.756;2023-04-01T04:24:35;23.77;36.53
79020;DHT22;68422;44.714;37.756;2023-04-01T04:25:53;23.74;36.50
79020;DHT22;68422;44.714;37.756;2023-04-01T04:26:55;23.67;36.73
79020;DHT22;68422;44.714;37.756;2023-04-01T04:27:57;23.63;36.74
79020;DHT22;68422;44.714;37.756;2023-04-01T04:28:59;23.65;36.83
79020;DHT22;68422;44.714;37.756;2023-04-01T04:30:01;23.67;36.73
79020;DHT22;68422;44.714;37.756;2023-04-01T04:31:03;23.71;36.63
79020;DHT22;68422;44.714;37.756;2023-04-01T04:32:10;23.67;36.72
79020;DHT22;68422;44.714;37.756;2023-04-01T04:33:11;23.65;36.76
79020;DHT22;68422;44.714;37.756;2023-04-01T04:34:13;23.65;36.83
79020;DHT22;68422;44.714;37.756;2023-04-01T04:35:14;23.65;36.89
79020;DHT22;68422;44.714;37.756;2023-04-01T04:36:17;23.65;36.89
79020;DHT22;68422;44.714;37.756;2023-04-01T04:37:18;23.62;36.90
79020;DHT22;68422;44.714;37.756;2023-04-01T04:38:20;23.57;37.00
79020;DHT22;68422;44.714;37.756;2023-04-01T04:39:22;23.57;37.11
79020;DHT22;68422;44.714;37.756;2023-04-01T04:40:24;23.57;37.16
79020;DHT22;68422;44.714;37.756;2023-04-01T04:41:25;23.56;37.12
79020;DHT22;68422;44.714;37.756;2023-04-01T04:42:27;23.62;36.99
79020;DHT22;68422;44.714;37.756;2023-04-01T04:43:35;23.62;36.99
79020;DHT22;68422;44.714;37.756;2023-04-01T04:44:36;23.65;37.15
79020;DHT22;68422;44.714;37.756;2023-04-01T04:45:38;23.67;37.12
79020;DHT22;68422;44.714;37.756;2023-04-01T04:46:40;23.67;36.97
79020;DHT22;68422;44.714;37.756;2023-04-01T04:47:49;23.67;36.91
79020;DHT22;68422;44.714;37.756;2023-04-01T04:48:50;23.71;36.93
79020;DHT22;68422;44.714;37.756;2023-04-01T04:49:52;23.69;36.88
79020;DHT22;68422;44.714;37.756;2023-04-01T04:50:53;23.65;37.23
79020;DHT22;68422;44.714;37.756;2023-04-01T04:51:58;23.65;37.09
79020;DHT22;68422;44.714;37.756;2023-04-01T04:53:02;23.59;37.14
79020;DHT22;68422;44.714;37.756;2023-04-01T04:54:05;23.62;37.03
79020;DHT22;68422;44.714;37.756;2023-04-01T04:55:21;23.66;37.01
79020;DHT22;68422;44.714;37.756;2023-04-01T04:56:27;23.65;36.93
79020;DHT22;68422;44.714;37.756;2023-04-01T04:57:37;23.77;36.76
79020;DHT22;68422;44.714;37.756;2023-04-01T04:58:39;23.79;36.79
79020;DHT22;68422;44.714;37.756;2023-04-01T04:59:42;23.79;36.75
79020;DHT22;68422;44.714;37.756;2023-04-01T05:00:57;23.79;36.76
79020;DHT22;68422;44.714;37.756;2023-04-01T05:02:02;23.81;36.73
79020;DHT22;68422;44.714;37.756;2023-04-01T05:03:04;23.87;36.71
79020;DHT22;68422;44.714;37.756;2023-04-01T05:04:06;23.86;36.75
79020;DHT22;68422;44.714;37.756;2023-04-01T05:05:07;23.83;36.73
79020;DHT22;68422;44.714;37.756;2023-04-01T05:06:10;23.87;36.71
79020;DHT22;68422;44.714;37.756;2023-04-01T05:07:11;23.88;37.08
79020;DHT22;68422;44.714;37.756;2023-04-01T05:08:13;23.87;36.99
79020;DHT22;68422;44.714;37.756;2023-04-01T05:09:15;23.81;36.81
79020;DHT22;68422;44.714;37.756;2023-04-01T05:10:16;23.83;36.79
79020;DHT22;68422;44.714;37.756;2023-04-01T05:11:18;23.87;36.70
79020;DHT22;68422;44.714;37.756;2023-04-01T05:12:20;23.94;36.56
79020;DHT22;68422;44.714;37.756;2023-04-01T05:13:35;24.00;36.41
79020;DHT22;68422;44.714;37.756;2023-04-01T05:14:36;24.01;36.34
79020;DHT22;68422;44.714;37.756;2023-04-01T05:15:43;24.07;36.18
79020;DHT22;68422;44.714;37.756;2023-04-01T05:16:45;24.07;36.23
79020;DHT22;68422;44.714;37.756;2023-04-01T05:17:46;24.08;36.40
79020;DHT22;68422;44.714;37.756;2023-04-01T05:18:52;24.03;36.52
79020;DHT22;68422;44.714;37.756;2023-04-01T05:19:54;23.92;36.66
79020;DHT22;68422;44.714;37.756;2023-04-01T05:20:59;23.81;36.90
79020;DHT22;68422;44.714;37.756;2023-04-01T05:22:06;23.76;37.02
79020;DHT22;68422;44.714;37.756;2023-04-01T05:23:11;23.71;37.14
79020;DHT22;68422;44.714;37.756;2023-04-01T05:24:13;23.70;37.05
79020;DHT22;68422;44.714;37.756;2023-04-01T05:25:14;23.73;36.97
79020;DHT22;68422;44.714;37.756;2023-04-01T05:26:16;23.76;37.12
79020;DHT22;68422;44.714;37.756;2023-04-01T05:27:17;23.77;37.32
79020;DHT22;68422;44.714;37.756;2023-04-01T05:28:19;23.83;37.15
79020;DHT22;68422;44.714;37.756;2023-04-01T05:29:22;23.83;37.17
79020;DHT22;68422;44.714;37.756;2023-04-01T05:30:29;23.93;36.79
79020;DHT22;68422;44.714;37.756;2023-04-01T05:31:51;23.87;36.68
79020;DHT22;68422;44.714;37.756;2023-04-01T05:32:53;23.86;36.73
79020;DHT22;68422;44.714;37.756;2023-04-01T05:33:54;23.87;36.76
79020;DHT22;68422;44.714;37.756;2023-04-01T05:34:56;23.90;36.71
79020;DHT22;68422;44.714;37.756;2023-04-01T05:36:06;23.90;36.60
79020;DHT22;68422;44.714;37.756;2023-04-01T05:37:07;23.90;36.56
79020;DHT22;68422;44.714;37.756;2023-04-01T05:38:08;23.88;36.69
79020;DHT22;68422;44.714;37.756;2023-04-01T05:39:10;23.86;36.67
79020;DHT22;68422;44.714;37.756;2023-04-01T05:40:11;23.93;36.48
79020;DHT22;68422;44.714;37.756;2023-04-01T05:41:14;23.92;36.50
79020;DHT22;68422;44.714;37.756;2023-04-01T05:42:18;23.88;36.53
79020;DHT22;68422;44.714;37.756;2023-04-01T05:43:20;23.92;36.50
79020;DHT22;68422;44.714;37.756;2023-04-01T05:44:23;23.90;36.48
79020;DHT22;68422;44.714;37.756;2023-04-01T05:45:53;23.94;36.46
79020;DHT22;68422;44.714;37.756;2023-04-01T05:47:08;23.88;36.51
79020;DHT22;68422;44.714;37.756;2023-04-01T05:48:10;23.81;36.63
79020;DHT22;68422;44.714;37.756;2023-04-01T05:49:14;23.86;36.92
79020;DHT22;68422;44.714;37.756;2023-04-01T05:50:15;23.90;37.24
79020;DHT22;68422;44.714;37.756;2023-04-01T05:51:17;23.97;37.29
79020;DHT22;68422;44.714;37.756;2023-04-01T05:52:18;24.01;37.24
79020;DHT22;68422;44.714;37.756;2023-04-01T05:53:20;23.98;36.81
79020;DHT22;68422;44.714;37.756;2023-04-01T05:54:21;24.04;36.77
79020;DHT22;68422;44.714;37.756;2023-04-01T05:55:23;24.00;37.09
79020;DHT22;68422;44.714;37.756;2023-04-01T05:56:25;24.04;36.98
79020;DHT22;68422;44.714;37.756;2023-04-01T05:57:27;24.10;37.22
79020;DHT22;68422;44.714;37.756;2023-04-01T05:58:28;24.03;37.20
79020;DHT22;68422;44.714;37.756;2023-04-01T05:59:29;24.06;37.11
79020;DHT22;68422;44.714;37.756;2023-04-01T06:00:32;24.00;37.33
79020;DHT22;68422;44.714;37.756;2023-04-01T06:01:34;24.01;37.60
79020;DHT22;68422;44.714;37.756;2023-04-01T06:02:36;24.03;37.31
79020;DHT22;68422;44.714;37.756;2023-04-01T06:03:38;24.07;36.90
79020;DHT22;68422;44.714;37.756;2023-04-01T06:04:40;24.04;36.80
79020;DHT22;68422;44.714;37.756;2023-04-01T06:05:43;24.04;36.72
79020;DHT22;68422;44.714;37.756;2023-04-01T06:06:45;23.97;36.97
79020;DHT22;68422;44.714;37.756;2023-04-01T06:07:47;23.94;36.96
79020;DHT22;68422;44.714;37.756;2023-04-01T06:08:49;23.93;37.00
79020;DHT22;68422;44.714;37.756;2023-04-01T06:09:51;23.87;37.17
79020;DHT22;68422;44.714;37.756;2023-04-01T06:11:07;23.84;37.20
79020;DHT22;68422;44.714;37.756;2023-04-01T06:12:37;23.84;37.19
79020;DHT22;68422;44.714;37.756;2023-04-01T06:14:29;23.81;37.17
79020;DHT22;68422;44.714;37.756;2023-04-01T06:15:40;23.79;37.16
79020;DHT22;68422;44.714;37.756;2023-04-01T06:16:55;23.76;37.32
79020;DHT22;68422;44.714;37.756;2023-04-01T06:19:46;23.69;37.46
79020;DHT22;68422;44.714;37.756;2023-04-01T06:29:24;23.70;37.51
79020;DHT22;68422;44.714;37.756;2023-04-01T06:30:41;23.73;37.48
79020;DHT22;68422;44.714;37.756;2023-04-01T06:32:59;23.71;37.37
79020;DHT22;68422;44.714;37.756;2023-04-01T06:45:03;23.94;36.99
79020;DHT22;68422;44.714;37.756;2023-04-01T06:46:47;23.84;37.11
79020;DHT22;68422;44.714;37.756;2023-04-01T06:48:53;23.80;37.25
79020;DHT22;68422;44.714;37.756;2023-04-01T06:50:52;23.79;37.16
79020;DHT22;68422;44.714;37.756;2023-04-01T06:54:38;23.81;37.26
79020;DHT22;68422;44.714;37.756;2023-04-01T06:55:47;23.79;37.32
79020;DHT22;68422;44.714;37.756;2023-04-01T06:58:23;23.87;37.16
79020;DHT22;68422;44.714;37.756;2023-04-01T06:59:30;23.86;37.14
79020;DHT22;68422;44.714;37.756;2023-04-01T07:00:39;23.88;37.13
79020;DHT22;68422;44.714;37.756;2023-04-01T07:01:49;23.84;37.17
79020;DHT22;68422;44.714;37.756;2023-04-01T07:04:09;23.87;36.98
79020;DHT22;68422;44.714;37.756;2023-04-01T07:05:14;23.86;37.00
79020;DHT22;68422;44.714;37.756;2023-04-01T07:08:45;23.96;36.86
79020;DHT22;68422;44.714;37.756;2023-04-01T07:09:53;23.93;36.95
79020;DHT22;68422;44.714;37.756;2023-04-01T07:11:08;24.00;37.35
79020;DHT22;68422;44.714;37.756;2023-04-01T07:14:24;24.07;37.68
79020;DHT22;68422;44.714;37.756;2023-04-01T07:15:34;24.07;37.60
79020;DHT22;68422;44.714;37.756;2023-04-01T07:16:56;24.08;37.63
79020;DHT22;68422;44.714;37.756;2023-04-01T07:18:07;24.08;37.65
79020;DHT22;68422;44.714;37.756;2023-04-01T07:20:38;24.04;37.09
79020;DHT22;68422;44.714;37.756;2023-04-01T07:21:51;24.04;37.76
79020;DHT22;68422;44.714;37.756;2023-04-01T07:23:05;24.16;37.85
79020;DHT22;68422;44.714;37.756;2023-04-01T07:24:36;24.16;37.88
79020;DHT22;68422;44.714;37.756;2023-04-01T07:25:44;24.17;37.88
79020;DHT22;68422;44.714;37.756;2023-04-01T07:27:10;24.21;37.79
79020;DHT22;68422;44.714;37.756;2023-04-01T07:28:20;24.25;37.74
79020;DHT22;68422;44.714;37.756;2023-04-01T07:29:31;24.27;37.55
79020;DHT22;68422;44.714;37.756;2023-04-01T07:39:10;23.97;37.92
79020;DHT22;68422;44.714;37.756;2023-04-01T07:42:09;23.94;37.64
79020;DHT22;68422;44.714;37.756;2023-04-01T07:46:17;23.88;37.72
79020;DHT22;68422;44.714;37.756;2023-04-01T07:51:19;23.97;37.52
79020;DHT22;68422;44.714;37.756;2023-04-01T07:52:24;23.98;37.38
79020;DHT22;68422;44.714;37.756;2023-04-01T07:53:38;23.97;37.64
79020;DHT22;68422;44.714;37.756;2023-04-01T07:55:14;23.93;37.56